Time;durP1;ratioP1;P1;durP2;ratioP2;P2;SDS_P1;SDS_P2;PMS_P1;PMS_P2;Temp;Humidity;BMP_temperature;BMP_pressure;BME280_temperature;BME280_humidity;BME280_pressure;Samples;Min_cycle;Max_cycle;Signal;HPM_P1;HPM_P2
2021/01/15 00:00:08;;;;;;;7.72;4.13;;;;;;;;;;5014724;28;20196;-77
2021/01/15 00:02:34;;;;;;;6.35;4.20;;;;;;;;;;5015161;28;20654;-76
2021/01/15 00:05:00;;;;;;;4.70;3.60;;;;;;;;;;5015036;28;20221;-77
2021/01/15 00:07:29;;;;;;;4.95;3.90;;;;;;;;;;5013878;28;20191;-78
2021/01/15 00:09:55;;;;;;;5.47;3.70;;;;;;;;;;5015374;28;20175;-76
2021/01/15 00:12:21;;;;;;;6.70;4.35;;;;;;;;;;5014421;28;20235;-79
2021/01/15 00:14:47;;;;;;;5.97;4.30;;;;;;;;;;5014057;28;20285;-75
2021/01/15 00:17:13;;;;;;;5.30;4.50;;;;;;;;;;5014653;28;20268;-75
2021/01/15 00:19:39;;;;;;;5.93;3.80;;;;;;;;;;5014505;28;20189;-75
2021/01/15 00:22:06;;;;;;;5.45;4.57;;;;;;;;;;5013635;28;20280;-75
2021/01/15 00:24:32;;;;;;;7.45;4.63;;;;;;;;;;5014357;28;20285;-75
2021/01/15 00:26:58;;;;;;;7.90;4.38;;;;;;;;;;5013793;28;20193;-75
2021/01/15 00:29:24;;;;;;;6.68;4.38;;;;;;;;;;5013557;28;20205;-75
2021/01/15 00:31:50;;;;;;;7.63;4.55;;;;;;;;;;5014060;28;20565;-76
2021/01/15 00:34:17;;;;;;;6.57;4.47;;;;;;;;;;5013409;28;20261;-77
2021/01/15 00:36:44;;;;;;;6.50;3.95;;;;;;;;;;5012351;28;20541;-78
2021/01/15 00:39:13;;;;;;;7.50;4.95;;;;;;;;;;5014566;28;20201;-75
2021/01/15 00:41:40;;;;;;;5.55;4.75;;;;;;;;;;5014062;28;20598;-77
2021/01/15 00:44:06;;;;;;;7.50;4.70;;;;;;;;;;5013397;28;20191;-76
2021/01/15 00:46:33;;;;;;;5.97;4.05;;;;;;;;;;5014436;28;20214;-75
2021/01/15 00:49:00;;;;;;;5.13;3.55;;;;;;;;;;5013742;28;20206;-74
2021/01/15 00:51:26;;;;;;;5.20;4.35;;;;;;;;;;5013094;28;20186;-76
2021/01/15 00:53:52;;;;;;;5.35;4.13;;;;;;;;;;5013352;28;20178;-75
2021/01/15 00:56:18;;;;;;;7.97;4.75;;;;;;;;;;5013752;28;20190;-77
2021/01/15 00:58:47;;;;;;;7.35;4.20;;;;;;;;;;5013418;28;20189;-77
2021/01/15 01:01:14;;;;;;;9.05;4.88;;;;;;;;;;5029121;28;20682;-75
2021/01/15 01:03:40;;;;;;;5.30;4.15;;;;;;;;;;5013685;28;20240;-75
2021/01/15 01:06:14;;;;;;;6.57;4.28;;;;;;;;;;5013511;28;20270;-77
2021/01/15 01:08:40;;;;;;;5.57;4.10;;;;;;;;;;5013894;28;20197;-77
2021/01/15 01:11:18;;;;;;;7.07;4.13;;;;;;;;;;5013689;28;20179;-77
2021/01/15 01:13:45;;;;;;;15.98;5.97;;;;;;;;;;5012841;28;20170;-77
2021/01/15 01:16:13;;;;;;;3.97;3.58;;;;;;;;;;5013214;28;20217;-78
2021/01/15 01:18:39;;;;;;;8.02;4.15;;;;;;;;;;5013791;28;20187;-77
2021/01/15 01:21:05;;;;;;;8.40;5.00;;;;;;;;;;5013045;28;20186;-74
2021/01/15 01:23:31;;;;;;;6.60;3.60;;;;;;;;;;5015094;28;20417;-78
2021/01/15 01:25:57;;;;;;;4.47;3.00;;;;;;;;;;5015065;28;20210;-75
2021/01/15 01:28:23;;;;;;;4.55;3.88;;;;;;;;;;5030147;28;20186;-77
2021/01/15 01:30:49;;;;;;;4.57;3.55;;;;;;;;;;5030155;28;20233;-76
2021/01/15 01:33:15;;;;;;;5.63;4.18;;;;;;;;;;5015303;28;20642;-76
2021/01/15 01:35:41;;;;;;;4.33;3.60;;;;;;;;;;5014603;28;20212;-78
2021/01/15 01:38:07;;;;;;;5.47;4.25;;;;;;;;;;5015082;28;20793;-76
2021/01/15 01:40:33;;;;;;;4.95;3.95;;;;;;;;;;5015350;28;20182;-78
2021/01/15 01:42:59;;;;;;;5.35;3.90;;;;;;;;;;5015119;28;20201;-76
2021/01/15 01:45:25;;;;;;;5.40;4.15;;;;;;;;;;5014425;28;20335;-77
2021/01/15 01:47:52;;;;;;;6.70;4.72;;;;;;;;;;5015027;28;20172;-76
2021/01/15 01:50:18;;;;;;;7.25;4.22;;;;;;;;;;5014647;28;20182;-74
2021/01/15 01:52:44;;;;;;;6.38;4.38;;;;;;;;;;5029962;28;20544;-78
2021/01/15 01:55:12;;;;;;;6.88;5.20;;;;;;;;;;5014310;28;20205;-78
2021/01/15 01:57:38;;;;;;;5.55;4.95;;;;;;;;;;5014625;28;20180;-77
2021/01/15 02:00:05;;;;;;;6.10;3.78;;;;;;;;;;5014551;28;20182;-74
2021/01/15 02:02:31;;;;;;;5.85;4.05;;;;;;;;;;5013570;28;20202;-77
2021/01/15 02:04:57;;;;;;;5.83;3.90;;;;;;;;;;5029339;28;20276;-77
2021/01/15 02:07:23;;;;;;;6.53;4.15;;;;;;;;;;5029642;28;20420;-76
2021/01/15 02:09:57;;;;;;;5.10;3.92;;;;;;;;;;5014424;28;20178;-75
2021/01/15 02:12:35;;;;;;;10.38;4.70;;;;;;;;;;5014302;28;20170;-76
2021/01/15 02:15:07;;;;;;;5.75;3.95;;;;;;;;;;5013774;28;20202;-77
2021/01/15 02:17:35;;;;;;;6.65;4.18;;;;;;;;;;5014427;28;20625;-76
2021/01/15 02:20:03;;;;;;;6.90;4.80;;;;;;;;;;5014329;28;20170;-77
2021/01/15 02:22:39;;;;;;;5.38;3.83;;;;;;;;;;5014385;28;20262;-76
2021/01/15 02:25:29;;;;;;;5.60;4.40;;;;;;;;;;5013758;28;20617;-76
2021/01/15 02:28:02;;;;;;;5.35;3.83;;;;;;;;;;5008935;28;20195;-76
2021/01/15 02:30:37;;;;;;;7.97;4.97;;;;;;;;;;5014232;28;20523;-78
2021/01/15 02:33:18;;;;;;;9.40;4.68;;;;;;;;;;5014097;28;20266;-74
2021/01/15 02:36:10;;;;;;;5.78;4.65;;;;;;;;;;5013588;28;20198;-78
2021/01/15 02:38:39;;;;;;;6.60;4.50;;;;;;;;;;4990324;28;20246;-75
2021/01/15 02:41:05;;;;;;;6.35;5.05;;;;;;;;;;5013911;28;20174;-75
2021/01/15 02:43:32;;;;;;;6.95;5.15;;;;;;;;;;5028936;28;20541;-78
2021/01/15 02:45:59;;;;;;;7.03;4.97;;;;;;;;;;5013737;28;20214;-76
2021/01/15 02:48:29;;;;;;;6.10;4.60;;;;;;;;;;5014119;28;20175;-76
2021/01/15 02:50:56;;;;;;;5.70;4.45;;;;;;;;;;5014223;28;20171;-77
2021/01/15 02:53:22;;;;;;;7.35;4.90;;;;;;;;;;5016622;28;20197;-76
2021/01/15 02:55:48;;;;;;;5.82;5.00;;;;;;;;;;5013998;28;20199;-78
2021/01/15 02:58:14;;;;;;;7.32;5.78;;;;;;;;;;5013770;28;20173;-77
2021/01/15 03:00:41;;;;;;;6.72;5.82;;;;;;;;;;5013618;28;20186;-77
2021/01/15 03:03:10;;;;;;;5.95;4.85;;;;;;;;;;5013596;28;20658;-77
2021/01/15 03:05:41;;;;;;;6.40;5.05;;;;;;;;;;5013116;28;20265;-77
2021/01/15 03:08:08;;;;;;;8.20;5.78;;;;;;;;;;5013666;28;20175;-78
2021/01/15 03:10:34;;;;;;;7.85;5.47;;;;;;;;;;5013520;28;20175;-78
2021/01/15 03:13:02;;;;;;;6.30;5.07;;;;;;;;;;5013387;28;20171;-78
2021/01/15 03:15:30;;;;;;;5.93;4.90;;;;;;;;;;5013043;28;20227;-78
2021/01/15 03:17:56;;;;;;;4.45;4.05;;;;;;;;;;5013491;28;20257;-77
2021/01/15 03:20:24;;;;;;;7.82;5.57;;;;;;;;;;5013531;28;20187;-75
2021/01/15 03:22:51;;;;;;;5.20;4.70;;;;;;;;;;5013534;28;20198;-75
2021/01/15 03:25:17;;;;;;;7.30;5.22;;;;;;;;;;5012830;28;20573;-77
2021/01/15 03:27:54;;;;;;;5.45;4.45;;;;;;;;;;5028417;28;20599;-74
2021/01/15 03:30:23;;;;;;;5.60;4.43;;;;;;;;;;5013731;28;20166;-77
2021/01/15 03:32:51;;;;;;;5.45;4.60;;;;;;;;;;5013226;28;20175;-76
2021/01/15 03:35:23;;;;;;;4.93;4.03;;;;;;;;;;5012837;28;20199;-77
2021/01/15 03:37:55;;;;;;;5.07;4.57;;;;;;;;;;5013651;28;20206;-77
2021/01/15 03:40:21;;;;;;;5.55;4.35;;;;;;;;;;5013440;28;20186;-76
2021/01/15 03:42:47;;;;;;;5.80;4.32;;;;;;;;;;5013315;28;20179;-76
2021/01/15 03:45:14;;;;;;;9.43;4.70;;;;;;;;;;5012637;28;20245;-77
2021/01/15 03:47:40;;;;;;;6.53;4.72;;;;;;;;;;5013265;28;20572;-77
2021/01/15 03:50:06;;;;;;;8.57;5.18;;;;;;;;;;5013245;28;20254;-77
2021/01/15 03:52:32;;;;;;;8.27;5.10;;;;;;;;;;5013176;28;20225;-76
2021/01/15 03:54:58;;;;;;;7.30;4.70;;;;;;;;;;5012670;28;20242;-75
2021/01/15 03:57:24;;;;;;;7.13;5.32;;;;;;;;;;5012913;28;20181;-76
2021/01/15 03:59:50;;;;;;;7.78;5.25;;;;;;;;;;5013066;28;20297;-76
2021/01/15 04:02:16;;;;;;;7.80;5.50;;;;;;;;;;5013112;28;20171;-78
2021/01/15 04:04:48;;;;;;;7.37;5.17;;;;;;;;;;5012508;28;20966;-78
2021/01/15 04:07:14;;;;;;;16.10;7.38;;;;;;;;;;5028105;28;20415;-78
2021/01/15 04:09:40;;;;;;;10.23;7.10;;;;;;;;;;5012890;28;20180;-76
2021/01/15 04:12:06;;;;;;;10.80;6.93;;;;;;;;;;5013011;28;20417;-75
2021/01/15 04:14:32;;;;;;;11.18;7.25;;;;;;;;;;5012511;28;21001;-75
2021/01/15 04:16:58;;;;;;;13.70;8.88;;;;;;;;;;5027910;28;20211;-78
2021/01/15 04:19:24;;;;;;;12.02;8.10;;;;;;;;;;5012773;28;20366;-78
2021/01/15 04:21:54;;;;;;;12.48;8.98;;;;;;;;;;5012867;28;20238;-77
2021/01/15 04:24:20;;;;;;;11.55;8.07;;;;;;;;;;5013175;28;20230;-75
2021/01/15 04:26:46;;;;;;;18.48;10.38;;;;;;;;;;5016658;28;20205;-74
2021/01/15 04:29:12;;;;;;;15.18;9.77;;;;;;;;;;5016273;28;20171;-75
2021/01/15 04:31:38;;;;;;;15.48;9.50;;;;;;;;;;5016335;28;20559;-76
2021/01/15 04:34:04;;;;;;;13.80;9.23;;;;;;;;;;5015980;28;20531;-76
2021/01/15 04:36:34;;;;;;;14.27;8.73;;;;;;;;;;5016364;28;20171;-78
2021/01/15 04:39:00;;;;;;;15.80;8.85;;;;;;;;;;5031461;28;20175;-77
2021/01/15 04:41:26;;;;;;;16.80;9.77;;;;;;;;;;5031329;28;20635;-76
2021/01/15 04:43:54;;;;;;;14.90;8.77;;;;;;;;;;5015585;28;20183;-75
2021/01/15 04:46:21;;;;;;;12.55;9.65;;;;;;;;;;5015944;28;20616;-76
2021/01/15 04:48:49;;;;;;;13.82;9.32;;;;;;;;;;5031235;28;20593;-77
2021/01/15 04:51:18;;;;;;;14.00;7.70;;;;;;;;;;5015929;28;20540;-77
2021/01/15 04:53:49;;;;;;;11.05;8.30;;;;;;;;;;5015444;28;20175;-76
2021/01/15 04:56:16;;;;;;;13.80;7.47;;;;;;;;;;5015755;28;20201;-76
2021/01/15 04:58:47;;;;;;;12.90;8.98;;;;;;;;;;5015911;28;20225;-76
2021/01/15 05:01:14;;;;;;;14.00;9.38;;;;;;;;;;5015754;28;20645;-78
2021/01/15 05:03:41;;;;;;;11.40;7.80;;;;;;;;;;5015134;28;20178;-75
2021/01/15 05:06:08;;;;;;;11.93;7.88;;;;;;;;;;5015514;28;20741;-75
2021/01/15 05:08:38;;;;;;;13.80;8.80;;;;;;;;;;5015674;28;20220;-76
2021/01/15 05:11:04;;;;;;;9.85;7.60;;;;;;;;;;5015608;28;20178;-76
2021/01/15 05:13:37;;;;;;;14.53;8.40;;;;;;;;;;5015254;28;20266;-77
2021/01/15 05:16:03;;;;;;;11.02;8.35;;;;;;;;;;5030441;28;20454;-77
2021/01/15 05:18:32;;;;;;;12.90;9.15;;;;;;;;;;5015525;28;20261;-78
2021/01/15 05:20:59;;;;;;;11.88;9.18;;;;;;;;;;5015949;28;20635;-77
2021/01/15 05:23:25;;;;;;;11.82;7.50;;;;;;;;;;5030862;28;20554;-76
2021/01/15 05:25:51;;;;;;;11.00;8.20;;;;;;;;;;5014944;28;20218;-77
2021/01/15 05:28:18;;;;;;;12.35;8.05;;;;;;;;;;5015255;28;20175;-76
2021/01/15 05:30:44;;;;;;;9.80;8.00;;;;;;;;;;5015273;28;20176;-76
2021/01/15 05:33:11;;;;;;;13.55;8.45;;;;;;;;;;5015132;28;20556;-76
2021/01/15 05:35:42;;;;;;;14.40;8.60;;;;;;;;;;5014735;28;20219;-76
2021/01/15 05:38:08;;;;;;;12.48;8.43;;;;;;;;;;5014866;28;20680;-74
2021/01/15 05:40:46;;;;;;;11.90;8.05;;;;;;;;;;5015158;28;20310;-76
2021/01/15 05:43:20;;;;;;;13.40;9.00;;;;;;;;;;5015178;28;20533;-77
2021/01/15 05:46:14;;;;;;;11.05;7.45;;;;;;;;;;5014814;28;20243;-76
2021/01/15 05:48:44;;;;;;;10.82;7.65;;;;;;;;;;5014495;28;20187;-75
2021/01/15 05:51:23;;;;;;;12.45;8.90;;;;;;;;;;5016993;28;20175;-76
2021/01/15 05:53:49;;;;;;;10.43;7.97;;;;;;;;;;5014467;28;20180;-77
2021/01/15 05:56:15;;;;;;;12.02;8.48;;;;;;;;;;5014604;28;20281;-77
2021/01/15 05:59:00;;;;;;;11.60;7.40;;;;;;;;;;5014786;28;20199;-77
2021/01/15 06:01:37;;;;;;;12.48;7.50;;;;;;;;;;5014564;28;20172;-78
2021/01/15 06:04:03;;;;;;;9.43;7.00;;;;;;;;;;5014010;28;20221;-77
2021/01/15 06:06:31;;;;;;;10.30;7.40;;;;;;;;;;5014376;28;20243;-76
2021/01/15 06:09:00;;;;;;;11.75;7.78;;;;;;;;;;5014417;28;20538;-76
2021/01/15 06:11:26;;;;;;;15.02;7.40;;;;;;;;;;5014469;28;20249;-76
2021/01/15 06:13:52;;;;;;;13.65;8.07;;;;;;;;;;5029324;28;20230;-77
2021/01/15 06:16:22;;;;;;;10.40;7.82;;;;;;;;;;5014112;28;20213;-77
2021/01/15 06:19:03;;;;;;;13.40;7.97;;;;;;;;;;5014442;28;20175;-76
2021/01/15 06:21:33;;;;;;;12.55;8.35;;;;;;;;;;5014308;28;20175;-75
2021/01/15 06:24:02;;;;;;;12.85;8.23;;;;;;;;;;5013707;28;20172;-77
2021/01/15 06:26:35;;;;;;;11.65;8.05;;;;;;;;;;5014040;28;20204;-77
2021/01/15 06:29:09;;;;;;;11.60;8.35;;;;;;;;;;5014089;28;20184;-77
2021/01/15 06:31:45;;;;;;;11.52;9.10;;;;;;;;;;5029439;28;20183;-78
2021/01/15 06:34:11;;;;;;;12.65;7.93;;;;;;;;;;5013670;28;20833;-77
2021/01/15 06:36:51;;;;;;;13.05;8.88;;;;;;;;;;5029303;28;20226;-77
2021/01/15 06:39:17;;;;;;;10.55;8.23;;;;;;;;;;5014093;28;20171;-76
2021/01/15 06:41:44;;;;;;;17.77;9.27;;;;;;;;;;5029063;28;20636;-77
2021/01/15 06:44:11;;;;;;;12.52;8.77;;;;;;;;;;5013391;28;20249;-77
2021/01/15 06:46:44;;;;;;;13.38;9.30;;;;;;;;;;5013811;28;20234;-76
2021/01/15 06:49:14;;;;;;;13.80;9.15;;;;;;;;;;5013721;28;20206;-75
2021/01/15 06:51:53;;;;;;;16.52;9.18;;;;;;;;;;5013855;28;20171;-77
2021/01/15 06:54:23;;;;;;;13.70;10.63;;;;;;;;;;5013449;28;20193;-77
2021/01/15 06:56:52;;;;;;;17.60;10.05;;;;;;;;;;5013939;28;20525;-78
2021/01/15 06:59:25;;;;;;;15.38;11.18;;;;;;;;;;5013677;28;20572;-75
2021/01/15 07:01:55;;;;;;;16.45;11.38;;;;;;;;;;5013917;28;20202;-76
2021/01/15 07:04:29;;;;;;;16.50;11.98;;;;;;;;;;5013102;28;20192;-76
2021/01/15 07:07:04;;;;;;;16.65;11.07;;;;;;;;;;5013556;28;20167;-77
2021/01/15 07:09:31;;;;;;;21.10;12.65;;;;;;;;;;5013593;28;20198;-76
2021/01/15 07:12:03;;;;;;;18.35;13.02;;;;;;;;;;5013590;28;20182;-75
2021/01/15 07:14:29;;;;;;;19.95;12.88;;;;;;;;;;5013670;28;20188;-76
2021/01/15 07:16:58;;;;;;;18.70;12.93;;;;;;;;;;5013215;28;20209;-77
2021/01/15 07:19:34;;;;;;;27.05;14.02;;;;;;;;;;5013434;28;20262;-78
2021/01/15 07:22:03;;;;;;;22.40;14.43;;;;;;;;;;5013573;28;20179;-77
2021/01/15 07:24:29;;;;;;;18.13;14.00;;;;;;;;;;5013065;28;20241;-77
2021/01/15 07:26:55;;;;;;;23.20;15.13;;;;;;;;;;5013496;28;20210;-76
2021/01/15 07:29:22;;;;;;;24.05;14.10;;;;;;;;;;5012390;28;20183;-77
2021/01/15 07:31:50;;;;;;;20.23;14.43;;;;;;;;;;5013393;28;20251;-74
2021/01/15 07:34:17;;;;;;;20.73;15.55;;;;;;;;;;5012879;28;20232;-76
2021/01/15 07:36:43;;;;;;;25.48;15.30;;;;;;;;;;5013191;28;20173;-76
2021/01/15 07:39:16;;;;;;;24.77;15.30;;;;;;;;;;5012835;28;20262;-78
2021/01/15 07:41:52;;;;;;;19.33;13.95;;;;;;;;;;5011136;28;20230;-76
2021/01/15 07:44:24;;;;;;;23.55;15.45;;;;;;;;;;5012481;28;20241;-75
2021/01/15 07:46:54;;;;;;;22.80;15.75;;;;;;;;;;5013357;28;20179;-76
2021/01/15 07:49:20;;;;;;;25.55;15.93;;;;;;;;;;5012995;28;20246;-76
2021/01/15 07:52:04;;;;;;;28.50;17.77;;;;;;;;;;5013327;28;20171;-75
2021/01/15 07:54:49;;;;;;;27.80;17.55;;;;;;;;;;5012786;28;20231;-75
2021/01/15 07:57:19;;;;;;;25.45;17.05;;;;;;;;;;5012997;28;20548;-75
2021/01/15 07:59:45;;;;;;;27.77;16.83;;;;;;;;;;5014183;28;20172;-76
2021/01/15 08:02:11;;;;;;;29.60;17.80;;;;;;;;;;5017076;28;20242;-77
2021/01/15 08:04:37;;;;;;;29.00;17.88;;;;;;;;;;5016342;28;20219;-75
2021/01/15 08:07:12;;;;;;;26.67;18.30;;;;;;;;;;5016715;28;20553;-76
2021/01/15 08:09:42;;;;;;;27.73;17.67;;;;;;;;;;5016820;28;20176;-77
2021/01/15 08:12:08;;;;;;;27.67;19.20;;;;;;;;;;5012377;28;21013;-76
2021/01/15 08:14:34;;;;;;;31.55;19.15;;;;;;;;;;5014899;28;20200;-75
2021/01/15 08:17:01;;;;;;;35.40;19.95;;;;;;;;;;5015083;28;20207;-76
2021/01/15 08:19:28;;;;;;;30.67;19.90;;;;;;;;;;5014299;28;20223;-75
2021/01/15 08:21:55;;;;;;;30.55;19.08;;;;;;;;;;5014844;28;20650;-76
2021/01/15 08:24:23;;;;;;;29.83;18.50;;;;;;;;;;5014875;28;20546;-78
2021/01/15 08:26:50;;;;;;;30.27;18.63;;;;;;;;;;5014011;28;20179;-75
2021/01/15 08:29:17;;;;;;;79.45;42.58;;;;;;;;;;5015015;28;20261;-77
2021/01/15 08:31:46;;;;;;;56.28;31.15;;;;;;;;;;5014479;28;20611;-76
2021/01/15 08:34:13;;;;;;;41.70;24.10;;;;;;;;;;5012370;28;20247;-76
2021/01/15 08:36:48;;;;;;;47.40;27.75;;;;;;;;;;5013181;28;20278;-75
2021/01/15 08:39:14;;;;;;;34.15;20.55;;;;;;;;;;5014988;28;20179;-76
2021/01/15 08:41:40;;;;;;;30.23;20.33;;;;;;;;;;5013743;28;20182;-75
2021/01/15 08:44:07;;;;;;;33.97;19.48;;;;;;;;;;5013054;28;20195;-76
2021/01/15 08:46:34;;;;;;;33.63;21.20;;;;;;;;;;5012599;28;20212;-77
2021/01/15 08:49:00;;;;;;;35.08;19.65;;;;;;;;;;5013904;28;20188;-74
2021/01/15 08:51:28;;;;;;;32.90;22.35;;;;;;;;;;5014108;28;20229;-75
2021/01/15 08:54:04;;;;;;;33.50;20.58;;;;;;;;;;5012786;28;20262;-73
2021/01/15 08:56:33;;;;;;;33.65;20.15;;;;;;;;;;5013586;28;20213;-76
2021/01/15 08:58:59;;;;;;;33.67;22.08;;;;;;;;;;5014520;28;20191;-77
2021/01/15 09:01:32;;;;;;;34.50;19.38;;;;;;;;;;5012689;28;20281;-77
2021/01/15 09:04:01;;;;;;;33.20;19.48;;;;;;;;;;5013166;28;20186;-74
2021/01/15 09:06:28;;;;;;;31.50;20.20;;;;;;;;;;5013718;28;20235;-76
2021/01/15 09:08:55;;;;;;;29.10;19.63;;;;;;;;;;5014600;28;20187;-77
2021/01/15 09:11:28;;;;;;;28.10;18.52;;;;;;;;;;5012897;28;20191;-76
2021/01/15 09:13:55;;;;;;;28.35;19.02;;;;;;;;;;5011484;28;20286;-76
2021/01/15 09:16:22;;;;;;;32.30;20.15;;;;;;;;;;5013631;28;20198;-74
2021/01/15 09:18:48;;;;;;;30.83;19.60;;;;;;;;;;5013517;28;20185;-74
2021/01/15 09:21:14;;;;;;;30.33;18.45;;;;;;;;;;5013939;28;20184;-74
2021/01/15 09:23:40;;;;;;;32.17;21.17;;;;;;;;;;5013681;28;20190;-76
2021/01/15 09:26:06;;;;;;;27.98;18.10;;;;;;;;;;5012489;28;20207;-75
2021/01/15 09:28:32;;;;;;;36.03;19.52;;;;;;;;;;5014046;28;20187;-74
2021/01/15 09:30:58;;;;;;;34.70;19.70;;;;;;;;;;5013385;28;20254;-76
2021/01/15 09:33:24;;;;;;;31.60;20.05;;;;;;;;;;5012821;28;20196;-75
2021/01/15 09:35:52;;;;;;;27.58;18.58;;;;;;;;;;5012887;28;20203;-75
2021/01/15 09:38:18;;;;;;;30.45;19.42;;;;;;;;;;5013499;28;20245;-73
2021/01/15 09:40:44;;;;;;;30.55;19.75;;;;;;;;;;5012269;28;20528;-76
2021/01/15 09:43:10;;;;;;;30.70;18.90;;;;;;;;;;5012570;28;20237;-74
2021/01/15 09:45:36;;;;;;;31.92;20.35;;;;;;;;;;5012762;28;20254;-77
2021/01/15 09:48:06;;;;;;;32.25;19.48;;;;;;;;;;5012917;28;20207;-74
2021/01/15 09:50:32;;;;;;;27.83;20.00;;;;;;;;;;5013224;28;20548;-77
2021/01/15 09:52:58;;;;;;;31.95;18.98;;;;;;;;;;5013598;28;20182;-73
2021/01/15 09:55:24;;;;;;;33.90;20.43;;;;;;;;;;5010874;28;20255;-77
2021/01/15 09:57:50;;;;;;;27.37;19.13;;;;;;;;;;5013069;28;20430;-76
2021/01/15 10:00:16;;;;;;;27.05;18.00;;;;;;;;;;5012852;28;20514;-75
2021/01/15 10:02:42;;;;;;;29.77;19.23;;;;;;;;;;5013386;28;20240;-75
2021/01/15 10:05:09;;;;;;;28.90;18.20;;;;;;;;;;5011576;28;20683;-77
2021/01/15 10:07:35;;;;;;;28.85;18.33;;;;;;;;;;5013205;28;20445;-76
2021/01/15 10:10:01;;;;;;;26.00;17.20;;;;;;;;;;5016694;28;20169;-74
2021/01/15 10:12:27;;;;;;;24.83;18.20;;;;;;;;;;5014119;28;20943;-77
2021/01/15 10:14:53;;;;;;;28.40;17.43;;;;;;;;;;5012701;28;20452;-74
2021/01/15 10:17:19;;;;;;;25.95;17.52;;;;;;;;;;5009307;28;20446;-75
2021/01/15 10:19:44;;;;;;;29.63;17.10;;;;;;;;;;5011398;28;20186;-74
2021/01/15 10:22:10;;;;;;;29.83;17.97;;;;;;;;;;5010967;28;20190;-74
2021/01/15 10:24:36;;;;;;;26.15;15.52;;;;;;;;;;5011333;28;20542;-74
2021/01/15 10:27:03;;;;;;;23.35;16.35;;;;;;;;;;5013076;28;20642;-74
2021/01/15 10:29:29;;;;;;;23.77;15.38;;;;;;;;;;5012599;28;20217;-76
2021/01/15 10:31:55;;;;;;;27.02;16.08;;;;;;;;;;5011883;28;20189;-74
2021/01/15 10:34:24;;;;;;;23.23;15.50;;;;;;;;;;5011963;28;20203;-76
2021/01/15 10:36:51;;;;;;;30.35;17.63;;;;;;;;;;5012766;28;20456;-74
2021/01/15 10:39:17;;;;;;;25.20;17.30;;;;;;;;;;5011451;28;20189;-76
2021/01/15 10:41:44;;;;;;;26.65;16.95;;;;;;;;;;5012522;28;20504;-74
2021/01/15 10:44:12;;;;;;;25.33;17.00;;;;;;;;;;5011681;28;20182;-74
2021/01/15 10:46:42;;;;;;;28.77;16.55;;;;;;;;;;5011701;28;20644;-76
2021/01/15 10:49:09;;;;;;;30.27;17.65;;;;;;;;;;5012285;28;20257;-75
2021/01/15 10:51:35;;;;;;;26.02;16.67;;;;;;;;;;5012467;28;20189;-76
2021/01/15 10:54:01;;;;;;;29.30;16.67;;;;;;;;;;5010929;28;20190;-76
2021/01/15 10:56:36;;;;;;;28.90;17.15;;;;;;;;;;5012422;28;20190;-77
2021/01/15 10:59:03;;;;;;;25.95;16.92;;;;;;;;;;5012193;28;20590;-77
2021/01/15 11:01:35;;;;;;;27.60;16.35;;;;;;;;;;5014439;28;20193;-78
2021/01/15 11:04:01;;;;;;;24.30;15.98;;;;;;;;;;5013027;28;20186;-77
2021/01/15 11:06:27;;;;;;;28.35;17.65;;;;;;;;;;5013724;28;20260;-76
2021/01/15 11:08:53;;;;;;;28.75;18.50;;;;;;;;;;5012317;28;20189;-76
2021/01/15 11:11:19;;;;;;;28.13;17.37;;;;;;;;;;5012678;28;20183;-76
2021/01/15 11:13:45;;;;;;;28.90;17.80;;;;;;;;;;5010838;28;20924;-76
2021/01/15 11:16:15;;;;;;;29.85;16.83;;;;;;;;;;5008912;28;20462;-74
2021/01/15 11:18:41;;;;;;;31.25;18.20;;;;;;;;;;5011649;28;20624;-76
2021/01/15 11:21:07;;;;;;;29.85;18.77;;;;;;;;;;5012273;28;20268;-75
2021/01/15 11:23:33;;;;;;;31.58;17.70;;;;;;;;;;5010538;28;20228;-75
2021/01/15 11:25:59;;;;;;;28.02;18.00;;;;;;;;;;5012020;28;20237;-76
2021/01/15 11:28:25;;;;;;;26.10;16.60;;;;;;;;;;5010216;28;20674;-75
2021/01/15 11:30:51;;;;;;;34.22;18.45;;;;;;;;;;5011284;28;20186;-75
2021/01/15 11:33:17;;;;;;;28.63;18.40;;;;;;;;;;5011826;28;20188;-75
2021/01/15 11:35:43;;;;;;;31.50;19.55;;;;;;;;;;5015555;28;20335;-74
2021/01/15 11:38:09;;;;;;;28.45;17.50;;;;;;;;;;5014703;28;20272;-76
2021/01/15 11:40:35;;;;;;;25.07;15.60;;;;;;;;;;5015982;28;20191;-75
2021/01/15 11:43:01;;;;;;;27.48;17.75;;;;;;;;;;5015490;28;20428;-77
2021/01/15 11:45:28;;;;;;;24.85;17.67;;;;;;;;;;5014595;28;20210;-75
2021/01/15 11:47:54;;;;;;;24.25;17.55;;;;;;;;;;5015101;28;20642;-75
2021/01/15 11:50:21;;;;;;;27.45;17.90;;;;;;;;;;5015843;28;20263;-76
2021/01/15 11:52:47;;;;;;;35.00;22.45;;;;;;;;;;5014344;28;20218;-76
2021/01/15 11:55:14;;;;;;;26.88;16.50;;;;;;;;;;5015424;28;20198;-77
2021/01/15 11:57:40;;;;;;;35.13;20.83;;;;;;;;;;5014507;28;20266;-75
2021/01/15 12:00:07;;;;;;;51.22;30.23;;;;;;;;;;5014790;28;20190;-77
2021/01/15 12:02:33;;;;;;;42.22;27.75;;;;;;;;;;5015187;28;20185;-78
2021/01/15 12:04:59;;;;;;;25.85;16.67;;;;;;;;;;5014908;28;20311;-76
2021/01/15 12:07:28;;;;;;;27.20;18.15;;;;;;;;;;5014560;28;20650;-76
2021/01/15 12:09:54;;;;;;;29.08;16.35;;;;;;;;;;5015381;28;20646;-77
2021/01/15 12:12:20;;;;;;;27.65;17.67;;;;;;;;;;5015365;28;20182;-75
2021/01/15 12:14:46;;;;;;;35.50;21.17;;;;;;;;;;5011448;28;20290;-77
2021/01/15 12:17:12;;;;;;;51.73;29.60;;;;;;;;;;5014479;28;20288;-77
2021/01/15 12:19:38;;;;;;;25.80;18.00;;;;;;;;;;5014580;28;20439;-76
2021/01/15 12:22:04;;;;;;;34.47;21.50;;;;;;;;;;5014380;28;20710;-74
2021/01/15 12:24:31;;;;;;;22.92;16.08;;;;;;;;;;5014353;28;20811;-75
2021/01/15 12:26:59;;;;;;;35.17;19.25;;;;;;;;;;5015074;28;20778;-76
2021/01/15 12:29:25;;;;;;;45.10;27.92;;;;;;;;;;5013477;28;20224;-76
2021/01/15 12:31:55;;;;;;;26.33;17.05;;;;;;;;;;5014832;28;20179;-75
2021/01/15 12:34:21;;;;;;;23.33;13.88;;;;;;;;;;5013560;28;20205;-75
2021/01/15 12:36:47;;;;;;;24.33;17.00;;;;;;;;;;5014207;28;20221;-78
2021/01/15 12:39:13;;;;;;;23.40;16.15;;;;;;;;;;5014582;28;20207;-76
2021/01/15 12:41:39;;;;;;;24.08;16.25;;;;;;;;;;5013586;28;20653;-77
2021/01/15 12:44:05;;;;;;;27.90;17.83;;;;;;;;;;5012594;28;20210;-75
2021/01/15 12:46:31;;;;;;;24.65;16.40;;;;;;;;;;5012615;28;20309;-73
2021/01/15 12:48:57;;;;;;;42.35;23.90;;;;;;;;;;5014189;28;20189;-76
2021/01/15 12:51:23;;;;;;;29.67;17.65;;;;;;;;;;5013521;28;20635;-74
2021/01/15 12:53:49;;;;;;;32.22;21.75;;;;;;;;;;5013490;28;20204;-75
2021/01/15 12:56:17;;;;;;;29.23;19.27;;;;;;;;;;5014618;28;20206;-75
2021/01/15 12:58:43;;;;;;;23.38;15.98;;;;;;;;;;5013695;28;20179;-77
2021/01/15 13:01:10;;;;;;;29.42;16.25;;;;;;;;;;5014678;28;20560;-75
2021/01/15 13:03:36;;;;;;;32.83;18.48;;;;;;;;;;5013305;28;20212;-76
2021/01/15 13:06:02;;;;;;;28.13;16.27;;;;;;;;;;5013402;28;20332;-77
2021/01/15 13:08:28;;;;;;;28.50;18.02;;;;;;;;;;5013874;28;20179;-76
2021/01/15 13:10:54;;;;;;;27.73;17.05;;;;;;;;;;5014290;28;20229;-75
2021/01/15 13:13:20;;;;;;;38.13;22.85;;;;;;;;;;5013049;28;20580;-74
2021/01/15 13:15:46;;;;;;;34.88;20.17;;;;;;;;;;5012784;28;20563;-76
2021/01/15 13:18:12;;;;;;;22.10;15.50;;;;;;;;;;5013316;28;20265;-74
2021/01/15 13:20:40;;;;;;;28.55;16.60;;;;;;;;;;5012924;28;20197;-76
2021/01/15 13:23:07;;;;;;;28.05;16.92;;;;;;;;;;5013577;28;20612;-74
2021/01/15 13:25:34;;;;;;;32.53;19.30;;;;;;;;;;5013374;28;20934;-75
2021/01/15 13:28:01;;;;;;;45.53;24.73;;;;;;;;;;5012824;28;20183;-74
2021/01/15 13:30:27;;;;;;;36.85;21.10;;;;;;;;;;5012208;28;20180;-76
2021/01/15 13:32:53;;;;;;;30.20;19.35;;;;;;;;;;5014052;28;20261;-76
2021/01/15 13:35:19;;;;;;;31.80;20.65;;;;;;;;;;5011898;28;20339;-74
2021/01/15 13:37:45;;;;;;;33.90;19.80;;;;;;;;;;5012376;28;20248;-75
2021/01/15 13:40:12;;;;;;;28.65;16.60;;;;;;;;;;5013314;28;20272;-77
2021/01/15 13:42:40;;;;;;;33.58;20.92;;;;;;;;;;5012937;28;20185;-75
2021/01/15 13:45:08;;;;;;;26.58;18.10;;;;;;;;;;5012708;28;20306;-75
2021/01/15 13:47:34;;;;;;;34.75;22.58;;;;;;;;;;5013484;28;20580;-75
2021/01/15 13:50:01;;;;;;;28.00;18.48;;;;;;;;;;5012177;28;20718;-78
2021/01/15 13:52:27;;;;;;;34.13;16.35;;;;;;;;;;5013534;28;20193;-76
2021/01/15 13:54:53;;;;;;;24.45;16.60;;;;;;;;;;5012547;28;20879;-78
2021/01/15 13:57:19;;;;;;;27.85;17.40;;;;;;;;;;5012172;28;20196;-76
2021/01/15 13:59:45;;;;;;;34.78;20.02;;;;;;;;;;5012135;28;20207;-75
2021/01/15 14:02:11;;;;;;;30.50;19.13;;;;;;;;;;5013426;28;20196;-76
2021/01/15 14:04:37;;;;;;;26.90;18.20;;;;;;;;;;5012356;28;20514;-77
2021/01/15 14:07:02;;;;;;;33.58;17.75;;;;;;;;;;5012447;28;20486;-78
2021/01/15 14:09:29;;;;;;;31.65;19.50;;;;;;;;;;5012533;28;20229;-77
2021/01/15 14:11:55;;;;;;;40.53;19.27;;;;;;;;;;5013137;28;20180;-78
2021/01/15 14:14:22;;;;;;;34.08;17.40;;;;;;;;;;5011568;28;20193;-78
2021/01/15 14:16:49;;;;;;;39.50;20.30;;;;;;;;;;5012032;28;20272;-78
2021/01/15 14:19:15;;;;;;;26.50;16.10;;;;;;;;;;5020918;28;20193;-76
2021/01/15 14:21:41;;;;;;;31.02;18.75;;;;;;;;;;5031507;28;20185;-76
2021/01/15 14:24:07;;;;;;;27.27;17.30;;;;;;;;;;5032224;28;20258;-76
2021/01/15 14:26:34;;;;;;;86.68;44.35;;;;;;;;;;5032160;28;20470;-77
2021/01/15 14:29:00;;;;;;;37.15;20.13;;;;;;;;;;5030373;28;20185;-77